Terminal Aerodrome Forecast
Issued by NWS

Home | Current Version | Previous Version | Text Only | Print | Product List | Glossary On
Versions: 1 2 3 4 5 6 7 8 9 10 11 12 13 14 15 16 17 18 19 20 21 22 23 24 25 26 27 28 29 30 31 32 33
000
FTUS41 KBOX 030811 AAA
TAFBAF
TAF AMD
KBAF 030811Z 0308/0406 00000KT P6SM -RA SCT002 OVC090
     FM031000 VRB03KT P6SM -RA SCT002 OVC020
     FM031200 VRB03KT 6SM +RA BR OVC010
     FM031600 03004KT 5SM BR VCSH OVC015
     FM032300 VRB03KT P6SM VCSH BKN020=

USA.gov is the U.S. government's official web portal to all federal, state and local government web resources and services.